Pearce, AZ (85625)

2:49 PM MST on August 01, 2015 (GMT -0700)
North of Ironwood Rd. | | Change Station
CLOSE
Current Station
Personal Weather Station
Location: Pearce, AZ
Elevation: 4365 ft
Nearby Weather Stations

Elev 4365 ft 31.95 °N, 109.88 °W | Updated 1 minute ago

Partly Cloudy
Partly Cloudy
82.8 °F
Feels Like 83 °F
N
18.0
Wind Variable Wind from WSW
Gusts 22.0 mph

Today
High -- | Low -- °F
--% Chance of Precip.
Yesterday
High -- | Low -- °F
Precip. -- in
5:34 AM 7:16 PM
Full, 97% visible
Pressure 30.13 in
Visibility 6.0 miles
Clouds Mostly Cloudy 12000 ft
Heat Index 83 °F
Dew Point 60 °F
Humidity 46%
Rainfall 0.00 in
Snow Depth Not available.
UV 5 out of 12
Pollen 3.60 out of 12
Air Quality Not available.
Flu Activity Not available.
SPECI KFHU 012140Z AUTO VRB01KT 6SM HZ VCTS BKN120 25/14 A3013 RMK AO2 LTG DSNT NE AND S-SW RAE10

More Conditions Fewer Conditions

Pressure 30.13 in
Visibility 6.0 miles
Clouds Mostly Cloudy 12000 ft
Heat Index 83 °F
Dew Point 60 °F
Humidity 46%
Rainfall 0.00 in
Snow Depth Not available.
UV 5 out of 12
Pollen 3.60 out of 12
Air Quality Not available.
Flu Activity Not available.
SPECI KFHU 012140Z AUTO VRB01KT 6SM HZ VCTS BKN120 25/14 A3013 RMK AO2 LTG DSNT NE AND S-SW RAE10

More Conditions Fewer Conditions

Nowcast | as of 1:16 PM MST on August 1, 2015

Scattered showers and thunderstorms will continue to develop across much of Southeast Arizona this afternoon. Rainfall amounts will generally be under half an inch...with locally higher amounts possible under stronger storms. Strong gusty winds will also be a concern under the strongest storms. Storm movement today will generally be to the north at around 5 to 10 mph.

×

10-Day Weather Forecast

×

Almanac

Astronomy

Aug. 01, 2015 Rise Set
Actual Time
Civil Twilight
Nautical Twilight
Astronomical Twilight
Moon
Length of Visible Light
Length of Day
Tomorrow will be .
, % of the Moon is Illuminated

Today's Extremes

State Highs State Lows

Community

WunderPhotos

Upload Photos

1,843,080 photos uploaded!

WunderBlogs® & News

Nearby

Air Quality

  Air Quality AQ Index Pollutant
Not available.

Snow Depth

Station Depth Elevation

Earthquake Activity

City Distance Mag. Time & Date
Minimum magnitude displayed is 2.5.

Coastal Water Temperatures

Place Temperature

Stations

Nearby Weather Stations

Station Location Temp. Windchill Dew Point Humidity Wind Precip. Elev Updated Type